createdAt,value
2022-11-03T00:01:38.747Z,69.20
2022-11-03T00:04:07.243Z,69.20
2022-11-03T00:06:36.838Z,69.20
2022-11-03T00:09:06.495Z,69.20
2022-11-03T00:11:34.759Z,69.40
2022-11-03T00:14:02.888Z,69.20
2022-11-03T00:16:32.941Z,69.50
2022-11-03T00:19:01.066Z,69.30
2022-11-03T00:21:29.197Z,69.30
2022-11-03T00:23:58.787Z,69.20
2022-11-03T00:26:27.633Z,69.20
2022-11-03T00:28:56.332Z,69.30
2022-11-03T00:31:25.048Z,69.40
2022-11-03T00:33:53.113Z,69.40
2022-11-03T00:36:21.917Z,69.30
2022-11-03T00:38:50.100Z,69.50
2022-11-03T00:41:20.727Z,69.70
2022-11-03T00:43:49.082Z,69.40
2022-11-03T00:46:17.238Z,69.60
2022-11-03T00:48:48.492Z,69.20
2022-11-03T00:51:17.373Z,69.50
2022-11-03T00:53:46.460Z,69.50
2022-11-03T00:56:15.360Z,69.30
2022-11-03T00:58:44.942Z,69.20
2022-11-03T01:01:14.113Z,69.40
2022-11-03T01:04:03.411Z,69.40
2022-11-03T01:06:49.849Z,69.40
2022-11-03T01:09:17.911Z,69.50
2022-11-03T01:11:50.842Z,69.30
2022-11-03T01:14:20.312Z,69.70
2022-11-03T01:16:48.366Z,69.70
2022-11-03T01:19:16.454Z,69.50
2022-11-03T01:22:09.698Z,69.40
2022-11-03T01:24:39.468Z,69.60
2022-11-03T01:27:07.561Z,69.70
2022-11-03T01:29:37.036Z,69.40
2022-11-03T01:32:05.251Z,69.40
2022-11-03T01:34:33.355Z,69.80
2022-11-03T01:37:01.411Z,69.70
2022-11-03T01:39:29.479Z,69.40
2022-11-03T01:41:57.563Z,69.50
2022-11-03T01:44:30.661Z,69.30
2022-11-03T01:47:03.065Z,69.40
2022-11-03T01:49:33.780Z,69.80
2022-11-03T01:52:03.244Z,69.80
2022-11-03T01:54:31.331Z,69.60
2022-11-03T01:56:59.788Z,69.60
2022-11-03T01:59:27.842Z,69.60
2022-11-03T02:01:56.063Z,69.60
2022-11-03T02:04:28.613Z,69.50
2022-11-03T02:07:01.379Z,69.80
2022-11-03T02:09:29.500Z,69.50
2022-11-03T02:12:09.696Z,69.70
2022-11-03T02:14:38.866Z,69.60
2022-11-03T02:17:08.838Z,69.70
2022-11-03T02:19:40.179Z,69.50
2022-11-03T02:22:17.750Z,69.70
2022-11-03T02:24:51.334Z,69.60
2022-11-03T02:27:23.449Z,69.50
2022-11-03T02:29:51.526Z,69.60
2022-11-03T02:32:22.814Z,69.70
2022-11-03T02:34:52.311Z,69.60
2022-11-03T02:37:22.212Z,69.70
2022-11-03T02:39:51.397Z,69.70
2022-11-03T02:42:19.545Z,69.60
2022-11-03T02:44:51.033Z,69.80
2022-11-03T02:47:19.060Z,69.70
2022-11-03T02:49:47.970Z,70.00
2022-11-03T02:52:36.675Z,69.90
2022-11-03T02:55:07.669Z,69.80
2022-11-03T02:57:35.815Z,70.00
2022-11-03T03:00:06.955Z,69.90
2022-11-03T03:02:37.080Z,70.00
2022-11-03T03:05:05.750Z,69.90
2022-11-03T03:07:35.458Z,69.90
2022-11-03T03:10:04.643Z,70.00
2022-11-03T03:12:32.732Z,70.00
2022-11-03T03:15:00.814Z,70.10
2022-11-03T03:17:32.100Z,69.80
2022-11-03T03:20:02.194Z,70.00
2022-11-03T03:22:33.201Z,69.90
2022-11-03T03:25:02.318Z,70.10
2022-11-03T03:27:32.133Z,70.10
2022-11-03T03:30:02.423Z,70.10
2022-11-03T03:32:32.740Z,70.00
2022-11-03T03:35:00.919Z,70.00
2022-11-03T03:37:29.007Z,70.00
2022-11-03T03:39:58.637Z,70.10
2022-11-03T03:42:33.669Z,70.00
2022-11-03T03:45:01.772Z,70.00
2022-11-03T03:47:32.093Z,70.30
2022-11-03T03:50:00.179Z,70.10
2022-11-03T03:52:28.276Z,70.40
2022-11-03T03:54:56.944Z,70.30
2022-11-03T03:57:25.557Z,70.50
2022-11-03T03:59:53.639Z,70.20
2022-11-03T04:02:21.829Z,70.20
2022-11-03T04:04:51.341Z,70.20
2022-11-03T04:07:42.418Z,70.20
2022-11-03T04:10:11.926Z,70.20
2022-11-03T04:12:59.322Z,70.20
2022-11-03T04:15:46.027Z,70.20
2022-11-03T04:18:31.496Z,70.30
2022-11-03T04:21:18.170Z,70.20
2022-11-03T04:23:46.268Z,70.40
2022-11-03T04:26:15.425Z,70.40
2022-11-03T04:28:43.591Z,70.30
2022-11-03T04:31:12.488Z,70.20
2022-11-03T04:33:41.680Z,70.40
2022-11-03T04:36:14.913Z,70.40
2022-11-03T04:38:42.975Z,70.50
2022-11-03T04:41:15.638Z,70.60
2022-11-03T04:43:43.845Z,70.40
2022-11-03T04:46:12.220Z,70.50
2022-11-03T04:48:40.283Z,70.90
2022-11-03T04:51:16.277Z,70.70
2022-11-03T04:53:51.129Z,70.60
2022-11-03T04:56:21.366Z,70.50
2022-11-03T04:58:49.606Z,70.60
2022-11-03T05:01:23.683Z,70.50
2022-11-03T05:03:53.713Z,70.50
2022-11-03T05:06:24.283Z,70.60
2022-11-03T05:08:54.515Z,70.60
2022-11-03T05:11:26.025Z,70.60
2022-11-03T05:13:54.067Z,70.60
2022-11-03T05:16:22.159Z,70.70
2022-11-03T05:18:50.898Z,70.70
2022-11-03T05:21:19.970Z,70.70
2022-11-03T05:23:50.496Z,70.80
2022-11-03T05:26:23.903Z,70.80
2022-11-03T05:28:53.442Z,70.80
2022-11-03T05:31:28.846Z,70.90
2022-11-03T05:33:58.900Z,70.80
2022-11-03T05:36:27.575Z,70.80
2022-11-03T05:38:59.992Z,70.80
2022-11-03T05:41:29.259Z,71.00
2022-11-03T05:43:59.200Z,71.00
2022-11-03T05:46:28.657Z,70.90
2022-11-03T05:48:56.767Z,70.90
2022-11-03T05:51:26.306Z,70.90
2022-11-03T05:53:56.822Z,70.90
2022-11-03T05:56:25.781Z,70.90
2022-11-03T05:58:54.763Z,71.30
2022-11-03T06:01:26.326Z,71.00
2022-11-03T06:03:54.438Z,71.10
2022-11-03T06:06:27.990Z,71.00
2022-11-03T06:08:59.102Z,71.20
2022-11-03T06:11:29.379Z,71.10
2022-11-03T06:13:58.177Z,71.20
2022-11-03T06:16:38.531Z,71.10
2022-11-03T06:19:20.772Z,71.10
2022-11-03T06:21:49.185Z,71.00
2022-11-03T06:24:19.306Z,71.10
2022-11-03T06:26:47.503Z,71.10
2022-11-03T06:29:16.588Z,71.10
2022-11-03T06:31:44.846Z,71.20
2022-11-03T06:34:39.190Z,71.20
2022-11-03T06:37:13.585Z,71.20
2022-11-03T06:39:43.231Z,71.10
2022-11-03T06:42:13.360Z,71.10
2022-11-03T06:44:42.550Z,71.30
2022-11-03T06:47:17.666Z,71.20
2022-11-03T06:49:45.708Z,71.10
2022-11-03T06:52:22.065Z,71.20
2022-11-03T06:54:51.492Z,71.20
2022-11-03T06:57:22.550Z,71.20
2022-11-03T07:00:06.560Z,71.40
2022-11-03T07:02:53.123Z,71.50
2022-11-03T07:05:23.278Z,71.50
2022-11-03T07:07:51.558Z,71.20
2022-11-03T07:10:20.989Z,71.50
2022-11-03T07:12:49.039Z,71.30
2022-11-03T07:15:30.313Z,71.20
2022-11-03T07:17:58.336Z,71.30
2022-11-03T07:20:26.455Z,71.20
2022-11-03T07:22:54.969Z,71.30
2022-11-03T07:25:24.424Z,71.30
2022-11-03T07:27:52.858Z,71.40
2022-11-03T07:30:22.251Z,71.30
2022-11-03T07:32:58.309Z,71.40
2022-11-03T07:35:46.948Z,71.40
2022-11-03T07:38:20.607Z,71.40
2022-11-03T07:40:50.384Z,71.50
2022-11-03T07:43:20.107Z,71.50
2022-11-03T07:45:50.101Z,71.60
2022-11-03T07:48:25.655Z,71.40
2022-11-03T07:50:55.451Z,71.50
2022-11-03T07:53:27.016Z,71.40
2022-11-03T07:55:56.902Z,71.40
2022-11-03T07:58:28.092Z,71.50
2022-11-03T08:00:58.792Z,71.70
2022-11-03T08:03:32.348Z,71.70
2022-11-03T08:06:02.708Z,71.60
2022-11-03T08:08:32.964Z,71.60
2022-11-03T08:11:02.498Z,71.50
2022-11-03T08:13:31.090Z,71.70
2022-11-03T08:15:59.761Z,71.60
2022-11-03T08:18:27.860Z,71.60
2022-11-03T08:20:56.019Z,71.60
2022-11-03T08:23:26.048Z,71.60
2022-11-03T08:25:54.493Z,71.60
2022-11-03T08:28:23.948Z,71.50
2022-11-03T08:30:52.061Z,72.00
2022-11-03T08:33:20.190Z,71.70
2022-11-03T08:35:48.291Z,71.70
2022-11-03T08:38:16.383Z,71.60
2022-11-03T08:40:45.055Z,71.70
2022-11-03T08:43:13.106Z,71.80
2022-11-03T08:45:42.562Z,71.70
2022-11-03T08:48:10.614Z,71.70
2022-11-03T08:50:38.696Z,71.70
2022-11-03T08:53:06.760Z,71.80
2022-11-03T08:55:34.881Z,71.80
2022-11-03T08:58:02.984Z,71.70
2022-11-03T09:00:31.082Z,71.90
2022-11-03T09:03:00.689Z,72.00
2022-11-03T09:05:28.793Z,71.80
2022-11-03T09:10:44.895Z,71.80
2022-11-03T09:13:15.156Z,71.70
2022-11-03T09:15:43.201Z,71.90
2022-11-03T09:18:12.612Z,72.00
2022-11-03T09:20:40.657Z,71.90
2022-11-03T09:23:08.732Z,71.80
2022-11-03T09:25:36.972Z,71.90
2022-11-03T09:28:05.581Z,71.90
2022-11-03T09:30:39.732Z,71.80
2022-11-03T09:33:07.898Z,71.90
2022-11-03T09:35:37.314Z,72.10
2022-11-03T09:38:07.938Z,71.80
2022-11-03T09:40:37.009Z,71.90
2022-11-03T09:43:05.512Z,72.20
2022-11-03T09:45:33.764Z,72.10
2022-11-03T09:48:02.084Z,72.00
2022-11-03T09:50:30.161Z,72.00
2022-11-03T09:52:59.711Z,72.20
2022-11-03T09:55:28.280Z,72.10
2022-11-03T09:57:56.384Z,72.00
2022-11-03T10:00:26.931Z,72.00
2022-11-03T10:02:55.006Z,72.00
2022-11-03T10:05:25.562Z,72.00
2022-11-03T10:10:24.584Z,72.20
2022-11-03T10:12:53.384Z,72.20
2022-11-03T10:15:23.084Z,72.10
2022-11-03T10:17:51.314Z,72.30
2022-11-03T10:20:20.302Z,72.30
2022-11-03T10:22:48.472Z,71.90
2022-11-03T10:25:50.912Z,72.10
2022-11-03T10:28:20.775Z,72.10
2022-11-03T10:33:42.479Z,71.80
2022-11-03T10:36:24.089Z,71.80
2022-11-03T10:38:52.167Z,71.80
2022-11-03T10:41:22.406Z,71.70
2022-11-03T10:44:24.830Z,71.70
2022-11-03T10:47:00.024Z,72.20
2022-11-03T10:49:29.259Z,71.80
2022-11-03T10:52:17.208Z,71.90
2022-11-03T10:54:45.358Z,71.60
2022-11-03T10:57:14.900Z,71.90
2022-11-03T10:59:43.021Z,72.20
2022-11-03T11:02:17.400Z,71.90
2022-11-03T11:04:45.690Z,71.80
2022-11-03T11:07:20.541Z,71.70
2022-11-03T11:09:48.612Z,71.70
2022-11-03T11:12:19.034Z,71.70
2022-11-03T11:14:54.943Z,71.60
2022-11-03T11:17:42.861Z,71.60
2022-11-03T11:20:38.653Z,71.60
2022-11-03T11:23:49.195Z,72.00
2022-11-03T11:26:31.431Z,71.90
2022-11-03T11:29:42.971Z,71.80
2022-11-03T11:32:47.869Z,71.80
2022-11-03T11:35:21.701Z,71.90
2022-11-03T11:37:49.704Z,71.70
2022-11-03T11:40:53.680Z,71.60
2022-11-03T11:43:28.169Z,71.80
2022-11-03T11:46:33.495Z,71.60
2022-11-03T11:49:17.293Z,71.60
2022-11-03T11:51:46.811Z,71.70
2022-11-03T11:54:18.574Z,71.50
2022-11-03T11:56:48.560Z,71.60
2022-11-03T11:59:25.085Z,71.90
2022-11-03T12:01:54.607Z,71.80
2022-11-03T12:04:24.477Z,72.00
2022-11-03T12:06:53.999Z,71.90
2022-11-03T12:09:22.954Z,71.90
2022-11-03T12:11:55.481Z,71.80
2022-11-03T12:14:25.636Z,71.90
2022-11-03T12:16:53.976Z,71.80
2022-11-03T12:19:41.254Z,71.80
2022-11-03T12:22:11.758Z,71.80
2022-11-03T12:24:50.715Z,72.00
2022-11-03T12:27:20.748Z,72.10
2022-11-03T12:29:48.913Z,71.90
2022-11-03T12:32:32.431Z,71.80
2022-11-03T12:35:01.429Z,71.70
2022-11-03T12:37:30.911Z,71.80
2022-11-03T12:39:58.976Z,71.80
2022-11-03T12:42:27.086Z,71.80
2022-11-03T12:44:55.933Z,71.70
2022-11-03T12:47:24.026Z,71.70
2022-11-03T12:49:55.246Z,71.80
2022-11-03T12:52:26.638Z,71.80
2022-11-03T12:54:56.212Z,71.70
2022-11-03T12:57:24.933Z,71.60
2022-11-03T12:59:53.049Z,71.70
2022-11-03T13:02:21.290Z,71.70
2022-11-03T13:04:49.540Z,71.70
2022-11-03T13:07:22.263Z,71.60
2022-11-03T13:09:59.069Z,71.60
2022-11-03T13:12:33.093Z,72.00
2022-11-03T13:15:02.043Z,72.00
2022-11-03T13:17:40.438Z,71.80
2022-11-03T13:20:18.552Z,71.60
2022-11-03T13:22:46.720Z,71.70
2022-11-03T13:25:16.311Z,71.60
2022-11-03T13:27:44.484Z,71.70
2022-11-03T13:30:13.545Z,71.70
2022-11-03T13:32:41.595Z,71.60
2022-11-03T13:35:13.673Z,71.60
2022-11-03T13:37:42.283Z,71.60
2022-11-03T13:40:29.217Z,71.60
2022-11-03T13:43:00.668Z,71.60
2022-11-03T13:45:34.662Z,71.60
2022-11-03T13:49:04.065Z,71.60
2022-11-03T13:50:53.631Z,71.60
2022-11-03T13:56:15.213Z,71.90
2022-11-03T14:01:37.586Z,71.60
2022-11-03T14:06:54.169Z,71.70
2022-11-03T14:09:22.244Z,71.60
2022-11-03T14:12:07.845Z,71.60
2022-11-03T14:14:37.405Z,71.70
2022-11-03T14:17:05.487Z,71.70
2022-11-03T14:19:39.426Z,71.60
2022-11-03T14:22:09.712Z,71.50
2022-11-03T14:24:37.821Z,71.70
2022-11-03T14:27:06.096Z,71.70
2022-11-03T14:29:34.151Z,71.50
2022-11-03T14:32:03.572Z,71.50
2022-11-03T14:34:31.709Z,71.50
2022-11-03T14:36:59.954Z,71.70
2022-11-03T14:39:28.177Z,71.50
2022-11-03T14:42:04.228Z,71.70
2022-11-03T14:44:33.076Z,71.50
2022-11-03T14:47:02.463Z,71.50
2022-11-03T14:49:32.306Z,71.50
2022-11-03T14:52:01.745Z,71.70
2022-11-03T14:54:30.161Z,71.70
2022-11-03T14:56:58.266Z,71.70
2022-11-03T14:59:26.362Z,71.60
2022-11-03T15:01:54.525Z,71.70
2022-11-03T15:04:22.713Z,71.70
2022-11-03T15:06:52.177Z,71.50
2022-11-03T15:09:20.218Z,71.70
2022-11-03T15:11:48.370Z,71.60
2022-11-03T15:14:16.460Z,71.70
2022-11-03T15:16:46.197Z,71.70
2022-11-03T15:19:14.423Z,71.80
2022-11-03T15:21:42.552Z,71.70
2022-11-03T15:27:00.460Z,71.70
2022-11-03T15:29:31.065Z,71.70
2022-11-03T15:31:59.163Z,71.70
2022-11-03T15:34:27.254Z,71.80
2022-11-03T15:36:55.336Z,71.80
2022-11-03T15:39:24.773Z,71.80
2022-11-03T15:41:52.828Z,71.80
2022-11-03T15:44:20.879Z,71.80
2022-11-03T15:46:48.985Z,71.90
2022-11-03T15:49:17.014Z,71.90
2022-11-03T15:51:45.056Z,72.00
2022-11-03T15:54:13.164Z,71.90
2022-11-03T15:56:42.666Z,71.90
2022-11-03T15:59:10.687Z,71.90
2022-11-03T16:01:39.118Z,72.00
2022-11-03T16:04:07.346Z,72.00
2022-11-03T16:07:01.570Z,72.00
2022-11-03T16:09:23.534Z,72.00
2022-11-03T16:11:52.995Z,72.10
2022-11-03T16:14:21.165Z,72.00
2022-11-03T16:16:49.257Z,72.20
2022-11-03T16:19:17.468Z,72.20
2022-11-03T16:21:45.569Z,72.20
2022-11-03T16:24:13.632Z,72.20
2022-11-03T16:26:41.851Z,72.30
2022-11-03T16:29:11.328Z,72.50
2022-11-03T16:31:39.431Z,72.50
2022-11-03T16:34:07.513Z,72.30
2022-11-03T16:36:41.569Z,72.40
2022-11-03T16:39:10.718Z,72.50
2022-11-03T16:41:39.086Z,72.50
2022-11-03T16:44:07.718Z,72.60
2022-11-03T16:46:37.767Z,72.70
2022-11-03T16:49:05.852Z,72.70
2022-11-03T16:51:33.947Z,72.70
2022-11-03T16:54:02.151Z,72.70
2022-11-03T16:56:30.340Z,72.90
2022-11-03T16:58:58.532Z,72.90
2022-11-03T17:01:27.459Z,73.00
2022-11-03T17:03:57.012Z,73.00
2022-11-03T17:06:25.469Z,73.10
2022-11-03T17:08:54.023Z,73.20
2022-11-03T17:11:36.084Z,73.20
2022-11-03T17:14:05.622Z,73.30
2022-11-03T17:16:33.799Z,73.30
2022-11-03T17:19:03.268Z,73.30
2022-11-03T17:21:31.906Z,73.50
2022-11-03T17:24:00.143Z,73.60
2022-11-03T17:26:30.932Z,73.40
2022-11-03T17:28:59.202Z,73.60
2022-11-03T17:31:34.730Z,73.50
2022-11-03T17:34:04.409Z,73.60
2022-11-03T17:36:32.610Z,73.70
2022-11-03T17:39:00.711Z,73.70
2022-11-03T17:41:28.782Z,73.70
2022-11-03T17:43:56.871Z,73.70
2022-11-03T17:46:24.899Z,73.80
2022-11-03T17:48:53.010Z,73.80
2022-11-03T17:51:23.629Z,73.80
2022-11-03T17:53:54.664Z,73.90
2022-11-03T17:56:31.082Z,73.90
2022-11-03T17:58:59.525Z,74.10
2022-11-03T18:01:28.225Z,74.20
2022-11-03T18:03:56.361Z,74.00
2022-11-03T18:06:26.117Z,74.00
2022-11-03T18:08:54.152Z,74.00
2022-11-03T18:11:46.513Z,74.30
2022-11-03T18:14:14.687Z,74.10
2022-11-03T18:16:42.740Z,74.30
2022-11-03T18:19:12.086Z,74.30
2022-11-03T18:21:42.134Z,74.10
2022-11-03T18:24:12.443Z,74.10
2022-11-03T18:26:40.542Z,74.40
2022-11-03T18:29:14.851Z,74.50
2022-11-03T18:31:44.178Z,74.40
2022-11-03T18:34:14.558Z,74.30
2022-11-03T18:36:44.181Z,74.30
2022-11-03T18:39:14.600Z,74.60
2022-11-03T18:41:44.051Z,74.40
2022-11-03T18:44:15.237Z,74.40
2022-11-03T18:46:43.278Z,74.60
2022-11-03T18:49:11.343Z,74.60
2022-11-03T18:51:39.523Z,74.60
2022-11-03T18:54:09.916Z,74.40
2022-11-03T18:56:38.373Z,74.50
2022-11-03T18:59:06.902Z,74.50
2022-11-03T19:01:35.350Z,74.40
2022-11-03T19:04:10.587Z,74.60
2022-11-03T19:06:38.644Z,74.60
2022-11-03T19:09:08.162Z,74.50
2022-11-03T19:11:36.194Z,74.60
2022-11-03T19:14:04.265Z,74.70
2022-11-03T19:16:32.539Z,74.80
2022-11-03T19:19:00.600Z,74.60
2022-11-03T19:21:29.440Z,74.60
2022-11-03T19:23:58.634Z,74.80
2022-11-03T19:26:29.802Z,75.00
2022-11-03T19:28:58.931Z,75.00
2022-11-03T19:31:30.526Z,74.90
2022-11-03T19:33:58.586Z,74.90
2022-11-03T19:36:27.378Z,74.70
2022-11-03T19:38:55.572Z,74.90
2022-11-03T19:41:41.139Z,74.80
2022-11-03T19:44:12.419Z,75.20
2022-11-03T19:46:40.633Z,75.10
2022-11-03T19:49:08.725Z,74.90
2022-11-03T19:51:39.691Z,74.90
2022-11-03T19:54:10.441Z,74.80
2022-11-03T19:56:38.503Z,74.80
2022-11-03T19:59:07.033Z,74.90
2022-11-03T20:01:45.155Z,75.20
2022-11-03T20:04:13.360Z,75.20
2022-11-03T20:06:41.944Z,74.80
2022-11-03T20:09:12.405Z,74.90
2022-11-03T20:11:40.452Z,75.10
2022-11-03T20:14:10.561Z,75.10
2022-11-03T20:16:40.117Z,74.90
2022-11-03T20:19:08.139Z,75.00
2022-11-03T20:21:36.182Z,75.20
2022-11-03T20:24:04.390Z,75.10
2022-11-03T20:26:32.676Z,75.00
2022-11-03T20:29:01.915Z,75.00
2022-11-03T20:31:30.091Z,75.20
2022-11-03T20:33:59.560Z,75.30
2022-11-03T20:36:27.630Z,75.30
2022-11-03T20:38:59.662Z,75.20
2022-11-03T20:41:28.071Z,75.30
2022-11-03T20:43:56.163Z,75.20
2022-11-03T20:46:24.963Z,75.20
2022-11-03T20:48:55.250Z,75.30
2022-11-03T20:51:25.475Z,75.10
2022-11-03T20:54:10.466Z,75.10
2022-11-03T20:56:38.608Z,75.40
2022-11-03T20:59:06.794Z,75.30
2022-11-03T21:01:35.484Z,75.40
2022-11-03T21:04:04.061Z,75.20
2022-11-03T21:06:33.960Z,75.20
2022-11-03T21:09:02.052Z,75.10
2022-11-03T21:11:31.085Z,75.20
2022-11-03T21:14:00.639Z,75.40
2022-11-03T21:16:47.761Z,75.50
2022-11-03T21:19:34.124Z,75.50
2022-11-03T21:22:03.595Z,75.50
2022-11-03T21:24:31.668Z,75.50
2022-11-03T21:26:59.710Z,75.60
2022-11-03T21:29:53.348Z,75.30
2022-11-03T21:32:17.164Z,75.20
2022-11-03T21:34:45.320Z,75.70
2022-11-03T21:37:16.071Z,75.70
2022-11-03T21:39:44.242Z,75.50
2022-11-03T21:42:29.889Z,75.60
2022-11-03T21:44:58.216Z,75.80
2022-11-03T21:47:26.353Z,75.60
2022-11-03T21:49:53.461Z,75.50
2022-11-03T21:52:31.973Z,75.50
2022-11-03T21:55:00.511Z,75.50
2022-11-03T21:57:28.809Z,75.50
2022-11-03T21:59:58.996Z,75.40
2022-11-03T22:02:30.911Z,75.40
2022-11-03T22:04:59.082Z,75.60
2022-11-03T22:07:31.976Z,75.60
2022-11-03T22:10:00.052Z,75.40
2022-11-03T22:12:28.835Z,75.50
2022-11-03T22:15:16.681Z,75.70
2022-11-03T22:17:45.793Z,75.60
2022-11-03T22:20:31.275Z,75.60
2022-11-03T22:23:19.920Z,75.70
2022-11-03T22:26:05.797Z,75.60
2022-11-03T22:28:33.823Z,75.70
2022-11-03T22:31:27.614Z,75.70
2022-11-03T22:34:13.566Z,75.70
2022-11-03T22:36:44.171Z,75.60
2022-11-03T22:39:39.242Z,75.70
2022-11-03T22:42:24.595Z,75.60
2022-11-03T22:45:10.230Z,75.70
2022-11-03T22:47:38.296Z,75.90
2022-11-03T22:50:06.944Z,75.80
2022-11-03T22:52:34.993Z,75.70
2022-11-03T22:55:03.690Z,75.70
2022-11-03T22:57:31.766Z,75.70
2022-11-03T22:59:59.823Z,75.70
2022-11-03T23:02:27.991Z,75.70
2022-11-03T23:04:56.211Z,76.00
2022-11-03T23:07:29.966Z,75.80
2022-11-03T23:10:04.624Z,75.80
2022-11-03T23:12:34.434Z,75.70
2022-11-03T23:15:19.988Z,75.90
2022-11-03T23:18:05.469Z,75.80
2022-11-03T23:20:51.133Z,75.90
2022-11-03T23:23:33.021Z,76.00
2022-11-03T23:26:01.070Z,76.10
2022-11-03T23:28:30.678Z,76.00
2022-11-03T23:30:58.730Z,76.00
2022-11-03T23:33:26.856Z,75.80
2022-11-03T23:35:54.943Z,75.80
2022-11-03T23:38:23.077Z,75.90
2022-11-03T23:40:51.143Z,76.00
2022-11-03T23:43:21.796Z,76.00
2022-11-03T23:46:11.260Z,76.00
2022-11-03T23:48:48.543Z,75.90
2022-11-03T23:51:16.872Z,76.00
2022-11-03T23:53:45.258Z,76.00
2022-11-03T23:56:31.237Z,76.00
2022-11-03T23:58:59.286Z,75.90
